Impacts METAR Board
IDs:

KIAH - Houston/Bush Intl, TX, US

Updated at: 1100 UTC 30 Oct 2020
Potential Impact None Slight Moderate High
Time 29/23Z 30/00Z 30/01Z 30/02Z 30/03Z 30/04Z 30/05Z 30/06Z 30/07Z 30/08Z 30/09Z 30/10Z 30/11Z
Temp59 54 54 53 52 51 51 50 50 50 49 48 47
Dewpt43 42 42 43 43 43 43 44 44 44 44 43 43
Altim30.09 30.13 30.16 30.18 30.20 30.19 30.20 30.20 30.20 30.20 30.21 30.21 30.22
VIS10 10 10 10 10 10 10 10 10 10 10 10 10
CIG-- 30 -- -- -- -- -- -- -- -- -- -- --
CoverSCTBKNSCTFEWCLRCLRCLRCLRCLRCLRCLRCLRCLR
FltCatVFRMVFRVFRVFRVFRVFRVFRVFRVFRVFRVFRVFRVFR
WX--------------------------
WDir340350340350360360360360101010360350
WSpd17 18 11 10 5 5 9 10 12 11 8 5 4
WGst22 24 -- 19 -- -- -- -- -- -- -- -- --
Raw hourly METARs
KIAH 292253Z 34017G22KT 10SM SCT034 15/06 A3009 RMK AO2 PK WND 32026/2223 SLP191 T01500061
KIAH 292353Z 35018G24KT 10SM BKN030 12/06 A3013 RMK AO2 SLP203 T01220056 10189 20122 53028
KIAH 300053Z 34011KT 10SM SCT030 12/06 A3016 RMK AO2 SLP213 T01220056
KIAH 300153Z 35010G19KT 10SM FEW030 12/06 A3018 RMK AO2 SLP222 T01170061
KIAH 300253Z 36005KT 10SM CLR 11/06 A3020 RMK AO2 SLP225 T01110061 51022
KIAH 300353Z 36005KT 10SM CLR 11/06 A3019 RMK AO2 SLP225 T01060061
KIAH 300453Z 36009KT 10SM CLR 11/06 A3020 RMK AO2 SLP227 T01060061
KIAH 300553Z 36010KT 10SM CLR 10/07 A3020 RMK AO2 SLP226 T01000067 10122 20100 401890056 50001
KIAH 300653Z 01012KT 10SM CLR 10/07 A3020 RMK AO2 SLP227 T01000067
KIAH 300753Z 01011KT 10SM CLR 10/07 A3020 RMK AO2 SLP225 T01000067
KIAH 300853Z 01008KT 10SM CLR 09/07 A3021 RMK AO2 SLP228 T00940067 53002
KIAH 300953Z 36005KT 10SM CLR 09/06 A3021 RMK AO2 SLP230 T00890061
KIAH 301053Z 35004KT 10SM CLR 08/06 A3022 RMK AO2 SLP232 T00830061



Page loaded:  11:27 UTC  |   04:27 AM Pacific  |   05:27 AM Mountain  |   06:27 AM Central  |   07:27 AM Eastern

 

ADVISORIES

FORECASTS

FORECASTS

OBSERVATIONS

USER TOOLS

ABOUT US